Mount Boyce, Australia
Current Conditions -  °F | °C
As of 10:00 PM on Friday 28 Nov 2014 (Local Time) from YSRI Reporting Station
Clear Clear  
Wind Chill: 64°   Ceiling: Unl
Heat Index: 64°   Visibility: 6mi
Dew Point: 54°   Wind: 5mph
Humidity: 68%   Direction: 60°ENE
Pressure: 30.12"   Gusts: NA
Location:  33.62°S, 150.27°E
Report Text: YSRI 281100Z AUTO 06004KT 9999 // NCD 18/12 Q1020
Loading
Personal Weather Stations






























Interactive Weather Map New forecast layout! Learn more

10-Day Weather Forecast

Advertisements
Track Severe Weather on mobile